createdAt,value
2018-06-30T00:00:53.061Z,931.91
2018-06-30T00:01:53.050Z,931.91
2018-06-30T00:02:52.995Z,931.88
2018-06-30T00:03:52.945Z,931.85
2018-06-30T00:04:52.920Z,931.90
2018-06-30T00:05:52.877Z,931.87
2018-06-30T00:06:52.810Z,931.88
2018-06-30T00:07:52.780Z,931.90
2018-06-30T00:08:52.744Z,931.84
2018-06-30T00:09:52.676Z,931.86
2018-06-30T00:10:52.618Z,931.89
2018-06-30T00:11:52.599Z,931.88
2018-06-30T00:12:52.539Z,931.89
2018-06-30T00:13:52.510Z,931.92
2018-06-30T00:14:52.444Z,931.91
2018-06-30T00:15:52.399Z,931.96
2018-06-30T00:16:52.380Z,931.92
2018-06-30T00:17:52.309Z,931.91
2018-06-30T00:18:52.285Z,931.94
2018-06-30T00:19:52.221Z,931.97
2018-06-30T00:20:52.179Z,931.94
2018-06-30T00:21:52.122Z,931.91
2018-06-30T00:22:52.088Z,931.95
2018-06-30T00:23:52.034Z,931.92
2018-06-30T00:24:51.983Z,931.89
2018-06-30T00:25:51.956Z,931.92
2018-06-30T00:26:51.898Z,931.90
2018-06-30T00:27:51.862Z,931.93
2018-06-30T00:28:51.806Z,931.93
2018-06-30T00:29:51.759Z,931.92
2018-06-30T00:30:51.712Z,931.90
2018-06-30T00:31:51.677Z,931.91
2018-06-30T00:32:51.640Z,931.89
2018-06-30T00:33:51.590Z,931.94
2018-06-30T00:34:51.546Z,931.90
2018-06-30T00:35:51.498Z,931.90
2018-06-30T00:36:51.438Z,931.91
2018-06-30T00:37:51.397Z,931.92
2018-06-30T00:38:51.380Z,931.93
2018-06-30T00:39:51.313Z,931.90
2018-06-30T00:40:51.278Z,931.93
2018-06-30T00:41:51.218Z,931.92
2018-06-30T00:42:51.188Z,931.89
2018-06-30T00:43:51.128Z,931.90
2018-06-30T00:44:51.094Z,931.92
2018-06-30T00:45:51.037Z,931.96
2018-06-30T00:46:50.993Z,931.91
2018-06-30T00:47:50.943Z,931.94
2018-06-30T00:48:50.939Z,931.97
2018-06-30T00:49:50.857Z,931.97
2018-06-30T00:50:50.823Z,931.95
2018-06-30T00:51:50.758Z,931.92
2018-06-30T00:52:50.739Z,931.93
2018-06-30T00:53:50.686Z,931.89
2018-06-30T00:54:50.652Z,931.94
2018-06-30T00:55:50.582Z,931.92
2018-06-30T00:56:50.532Z,931.87
2018-06-30T00:57:50.494Z,931.87
2018-06-30T00:58:50.450Z,931.87
2018-06-30T00:59:50.417Z,931.88
2018-06-30T01:00:50.358Z,931.86
2018-06-30T01:01:50.326Z,931.86
2018-06-30T01:02:50.275Z,931.91
2018-06-30T01:03:50.234Z,931.88
2018-06-30T01:04:50.199Z,931.88
2018-06-30T01:05:50.154Z,931.87
2018-06-30T01:06:50.110Z,931.87
2018-06-30T01:07:50.060Z,931.87
2018-06-30T01:08:49.997Z,931.85
2018-06-30T01:09:49.947Z,931.87
2018-06-30T01:10:49.919Z,931.85
2018-06-30T01:11:49.863Z,931.87
2018-06-30T01:12:49.817Z,931.83
2018-06-30T01:13:49.785Z,931.85
2018-06-30T01:14:49.739Z,931.83
2018-06-30T01:15:49.704Z,931.82
2018-06-30T01:16:49.636Z,931.79
2018-06-30T01:17:49.595Z,931.76
2018-06-30T01:18:49.537Z,931.76
2018-06-30T01:19:49.513Z,931.74
2018-06-30T01:20:49.455Z,931.72
2018-06-30T01:21:49.407Z,931.70
2018-06-30T01:22:49.388Z,931.66
2018-06-30T01:23:49.327Z,931.66
2018-06-30T01:24:49.267Z,931.65
2018-06-30T01:25:49.239Z,931.62
2018-06-30T01:26:49.174Z,931.66
2018-06-30T01:27:49.148Z,931.66
2018-06-30T01:28:49.089Z,931.64
2018-06-30T01:29:49.071Z,931.62
2018-06-30T01:30:48.999Z,931.61
2018-06-30T01:31:48.981Z,931.63
2018-06-30T01:32:48.908Z,931.66
2018-06-30T01:33:48.872Z,931.62
2018-06-30T01:34:48.839Z,931.62
2018-06-30T01:35:48.770Z,931.62
2018-06-30T01:36:48.733Z,931.62
2018-06-30T01:37:48.677Z,931.59
2018-06-30T01:38:48.649Z,931.58
2018-06-30T01:39:48.595Z,931.64
2018-06-30T01:40:48.554Z,931.59
2018-06-30T01:41:48.536Z,931.59
2018-06-30T01:42:48.448Z,931.58
2018-06-30T01:43:48.439Z,931.64
2018-06-30T01:44:48.360Z,931.61
2018-06-30T01:45:48.333Z,931.58
2018-06-30T01:46:48.267Z,931.62
2018-06-30T01:47:48.227Z,931.63
2018-06-30T01:48:48.192Z,931.61
2018-06-30T01:49:48.150Z,931.61
2018-06-30T01:50:48.092Z,931.62
2018-06-30T01:51:48.052Z,931.62
2018-06-30T01:52:48.005Z,931.65
2018-06-30T01:53:47.965Z,931.61
2018-06-30T01:54:47.917Z,931.59
2018-06-30T01:55:47.854Z,931.64
2018-06-30T01:56:47.830Z,931.59
2018-06-30T01:57:47.780Z,931.63
2018-06-30T01:58:47.724Z,931.62
2018-06-30T01:59:47.691Z,931.62
2018-06-30T02:00:47.648Z,931.63
2018-06-30T02:01:47.628Z,931.66
2018-06-30T02:02:47.548Z,931.73
2018-06-30T02:03:47.498Z,931.69
2018-06-30T02:04:47.461Z,931.69
2018-06-30T02:05:47.437Z,931.69
2018-06-30T02:06:47.363Z,931.70
2018-06-30T02:07:47.333Z,931.66
2018-06-30T02:08:47.278Z,931.67
2018-06-30T02:09:47.236Z,931.68
2018-06-30T02:10:47.187Z,931.69
2018-06-30T02:11:47.161Z,931.66
2018-06-30T02:12:47.091Z,931.68
2018-06-30T02:13:47.056Z,931.67
2018-06-30T02:14:47.002Z,931.65
2018-06-30T02:15:46.974Z,931.72
2018-06-30T02:16:46.915Z,931.71
2018-06-30T02:17:46.868Z,931.70
2018-06-30T02:18:46.905Z,931.70
2018-06-30T02:19:46.772Z,931.77
2018-06-30T02:20:46.724Z,931.76
2018-06-30T02:21:46.676Z,931.74
2018-06-30T02:22:46.631Z,931.73
2018-06-30T02:23:46.585Z,931.75
2018-06-30T02:24:46.539Z,931.71
2018-06-30T02:25:46.509Z,931.69
2018-06-30T02:26:46.457Z,931.71
2018-06-30T02:27:46.443Z,931.72
2018-06-30T02:28:46.374Z,931.68
2018-06-30T02:29:46.324Z,931.79
2018-06-30T02:30:46.296Z,931.72
2018-06-30T02:31:46.220Z,931.71
2018-06-30T02:32:46.195Z,931.71
2018-06-30T02:33:46.144Z,931.73
2018-06-30T02:34:46.104Z,931.71
2018-06-30T02:35:46.069Z,931.72
2018-06-30T02:36:46.018Z,931.71
2018-06-30T02:37:45.966Z,931.72
2018-06-30T02:38:45.929Z,931.68
2018-06-30T02:39:45.859Z,931.68
2018-06-30T02:40:45.821Z,931.64
2018-06-30T02:41:45.778Z,931.67
2018-06-30T02:42:45.731Z,931.69
2018-06-30T02:43:45.685Z,931.66
2018-06-30T02:44:45.639Z,931.68
2018-06-30T02:45:45.589Z,931.66
2018-06-30T02:46:45.564Z,931.65
2018-06-30T02:47:45.535Z,931.62
2018-06-30T02:48:45.444Z,931.60
2018-06-30T02:49:45.401Z,931.60
2018-06-30T02:50:45.387Z,931.57
2018-06-30T02:51:45.328Z,931.56
2018-06-30T02:52:45.263Z,931.52
2018-06-30T02:53:45.232Z,931.54
2018-06-30T02:54:45.184Z,931.54
2018-06-30T02:55:45.160Z,931.54
2018-06-30T02:56:45.081Z,931.52
2018-06-30T02:57:45.058Z,931.59
2018-06-30T02:58:45.006Z,931.59
2018-06-30T02:59:44.946Z,931.60
2018-06-30T03:00:44.919Z,931.56
2018-06-30T03:01:44.880Z,931.55
2018-06-30T03:02:44.812Z,931.53
2018-06-30T03:03:44.774Z,931.52
2018-06-30T03:04:44.737Z,931.56
2018-06-30T03:05:44.699Z,931.53
2018-06-30T03:06:44.630Z,931.52
2018-06-30T03:07:44.590Z,931.54
2018-06-30T03:08:44.540Z,931.55
2018-06-30T03:09:44.499Z,931.58
2018-06-30T03:10:44.464Z,931.53
2018-06-30T03:11:44.400Z,931.57
2018-06-30T03:12:44.376Z,931.58
2018-06-30T03:13:44.319Z,931.58
2018-06-30T03:14:44.262Z,931.58
2018-06-30T03:15:44.238Z,931.61
2018-06-30T03:16:44.180Z,931.70
2018-06-30T03:17:44.164Z,931.72
2018-06-30T03:18:44.106Z,931.70
2018-06-30T03:19:44.067Z,931.65
2018-06-30T03:20:44.004Z,931.73
2018-06-30T03:21:43.975Z,931.72
2018-06-30T03:22:43.918Z,931.72
2018-06-30T03:23:43.854Z,931.74
2018-06-30T03:24:43.805Z,931.74
2018-06-30T03:25:43.769Z,931.77
2018-06-30T03:26:43.722Z,931.76
2018-06-30T03:27:43.672Z,931.75
2018-06-30T03:28:43.630Z,931.71
2018-06-30T03:29:43.574Z,931.69
2018-06-30T03:30:43.533Z,931.67
2018-06-30T03:31:43.581Z,931.67
2018-06-30T03:32:43.461Z,931.71
2018-06-30T03:33:43.423Z,931.69
2018-06-30T03:34:43.382Z,931.66
2018-06-30T03:35:43.300Z,931.72
2018-06-30T03:36:43.256Z,931.72
2018-06-30T03:37:43.205Z,931.71
2018-06-30T03:38:43.176Z,931.70
2018-06-30T03:39:43.143Z,931.72
2018-06-30T03:40:43.081Z,931.69
2018-06-30T03:41:43.053Z,931.68
2018-06-30T03:42:43.017Z,931.64
2018-06-30T03:43:42.940Z,931.59
2018-06-30T03:44:42.907Z,931.63
2018-06-30T03:45:42.856Z,931.59
2018-06-30T03:46:42.827Z,931.65
2018-06-30T03:47:42.763Z,931.70
2018-06-30T03:48:42.710Z,931.70
2018-06-30T03:49:42.664Z,931.66
2018-06-30T03:50:42.614Z,931.68
2018-06-30T03:51:42.585Z,931.68
2018-06-30T03:52:42.541Z,931.66
2018-06-30T03:53:42.490Z,931.67
2018-06-30T03:54:42.462Z,931.64
2018-06-30T03:55:42.391Z,931.65
2018-06-30T03:56:42.365Z,931.66
2018-06-30T03:57:42.303Z,931.66
2018-06-30T03:58:42.254Z,931.66
2018-06-30T03:59:42.256Z,931.66
2018-06-30T04:00:42.167Z,931.58
2018-06-30T04:01:42.137Z,931.60
2018-06-30T04:02:42.069Z,931.54
2018-06-30T04:03:42.048Z,931.54
2018-06-30T04:04:41.981Z,931.52
2018-06-30T04:05:41.942Z,931.53
2018-06-30T04:06:41.888Z,931.51
2018-06-30T04:07:41.859Z,931.50
2018-06-30T04:08:41.791Z,931.51
2018-06-30T04:09:41.768Z,931.54
2018-06-30T04:10:41.733Z,931.55
2018-06-30T04:11:41.655Z,931.55
2018-06-30T04:12:41.617Z,931.54
2018-06-30T04:13:41.565Z,931.52
2018-06-30T04:14:41.520Z,931.46
2018-06-30T04:15:41.495Z,931.48
2018-06-30T04:16:41.453Z,931.49
2018-06-30T04:17:41.377Z,931.44
2018-06-30T04:18:41.327Z,931.38
2018-06-30T04:19:41.314Z,931.41
2018-06-30T04:20:41.239Z,931.38
2018-06-30T04:21:41.193Z,931.40
2018-06-30T04:22:41.153Z,931.40
2018-06-30T04:23:41.131Z,931.36
2018-06-30T04:24:41.080Z,931.36
2018-06-30T04:25:41.020Z,931.38
2018-06-30T04:26:40.992Z,931.37
2018-06-30T04:27:40.922Z,931.34
2018-06-30T04:28:40.877Z,931.36
2018-06-30T04:29:40.852Z,931.37
2018-06-30T04:30:40.782Z,931.34
2018-06-30T04:31:40.745Z,931.40
2018-06-30T04:32:40.708Z,931.36
2018-06-30T04:33:40.658Z,931.40
2018-06-30T04:34:40.615Z,931.38
2018-06-30T04:35:40.564Z,931.39
2018-06-30T04:36:40.516Z,931.37
2018-06-30T04:37:40.486Z,931.38
2018-06-30T04:38:40.427Z,931.38
2018-06-30T04:39:40.387Z,931.34
2018-06-30T04:40:40.320Z,931.30
2018-06-30T04:41:40.288Z,931.36
2018-06-30T04:42:40.235Z,931.36
2018-06-30T04:43:40.203Z,931.37
2018-06-30T04:44:40.173Z,931.38
2018-06-30T04:45:40.133Z,931.41
2018-06-30T04:46:40.051Z,931.35
2018-06-30T04:47:40.000Z,931.35
2018-06-30T04:48:39.968Z,931.33
2018-06-30T04:49:39.925Z,931.37
2018-06-30T04:50:39.892Z,931.37
2018-06-30T04:51:39.811Z,931.34
2018-06-30T04:52:39.795Z,931.35
2018-06-30T04:53:39.752Z,931.36
2018-06-30T04:54:39.703Z,931.35
2018-06-30T04:55:39.648Z,931.35
2018-06-30T04:56:39.598Z,931.32
2018-06-30T04:57:39.677Z,931.33
2018-06-30T04:58:39.518Z,931.35
2018-06-30T04:59:39.454Z,931.33
2018-06-30T05:00:39.422Z,931.26
2018-06-30T05:01:39.354Z,931.32
2018-06-30T05:02:39.310Z,931.28
2018-06-30T05:03:39.275Z,931.25
2018-06-30T05:04:39.234Z,931.27
2018-06-30T05:05:39.187Z,931.28
2018-06-30T05:06:39.151Z,931.26
2018-06-30T05:07:39.105Z,931.24
2018-06-30T05:08:39.035Z,931.23
2018-06-30T05:09:39.002Z,931.23
2018-06-30T05:10:38.976Z,931.23
2018-06-30T05:11:38.915Z,931.21
2018-06-30T05:12:38.857Z,931.23
2018-06-30T05:13:38.812Z,931.24
2018-06-30T05:14:38.784Z,931.25
2018-06-30T05:15:38.724Z,931.25
2018-06-30T05:16:38.705Z,931.28
2018-06-30T05:17:38.639Z,931.29
2018-06-30T05:18:38.578Z,931.28
2018-06-30T05:19:38.544Z,931.31
2018-06-30T05:20:38.484Z,931.32
2018-06-30T05:21:38.456Z,931.32
2018-06-30T05:22:38.402Z,931.37
2018-06-30T05:23:38.361Z,931.38
2018-06-30T05:24:38.308Z,931.43
2018-06-30T05:25:38.281Z,931.44
2018-06-30T05:26:38.221Z,931.43
2018-06-30T05:27:38.178Z,931.40
2018-06-30T05:28:38.117Z,931.40
2018-06-30T05:29:38.072Z,931.35
2018-06-30T05:30:38.046Z,931.38
2018-06-30T05:31:38.001Z,931.40
2018-06-30T05:32:37.944Z,931.43
2018-06-30T05:33:38.120Z,931.44
2018-06-30T05:34:37.836Z,931.45
2018-06-30T05:35:37.796Z,931.49
2018-06-30T05:36:37.758Z,931.49
2018-06-30T05:37:37.717Z,931.51
2018-06-30T05:38:37.663Z,931.43
2018-06-30T05:39:37.606Z,931.45
2018-06-30T05:40:37.575Z,931.48
2018-06-30T05:41:37.521Z,931.34
2018-06-30T05:42:37.474Z,931.35
2018-06-30T05:43:37.427Z,931.34
2018-06-30T05:44:37.386Z,931.33
2018-06-30T05:45:37.336Z,931.35
2018-06-30T05:46:37.296Z,931.31
2018-06-30T05:47:37.269Z,931.33
2018-06-30T05:48:37.191Z,931.32
2018-06-30T05:49:37.149Z,931.32
2018-06-30T05:50:37.106Z,931.35
2018-06-30T05:51:37.056Z,931.34
2018-06-30T05:52:37.016Z,931.31
2018-06-30T05:53:36.991Z,931.26
2018-06-30T05:54:36.914Z,931.30
2018-06-30T05:55:36.880Z,931.29
2018-06-30T05:56:36.828Z,931.28
2018-06-30T05:57:36.781Z,931.25
2018-06-30T05:58:36.751Z,931.28
2018-06-30T05:59:36.709Z,931.26
2018-06-30T06:00:36.636Z,931.26
2018-06-30T06:01:36.599Z,931.24
2018-06-30T06:02:36.548Z,931.30
2018-06-30T06:03:36.504Z,931.26
2018-06-30T06:04:36.455Z,931.28
2018-06-30T06:05:36.426Z,931.32
2018-06-30T06:06:36.379Z,931.30
2018-06-30T06:07:36.324Z,931.29
2018-06-30T06:08:36.279Z,931.30
2018-06-30T06:09:36.295Z,931.28
2018-06-30T06:10:36.184Z,931.30
2018-06-30T06:11:36.152Z,931.26
2018-06-30T06:12:36.084Z,931.30
2018-06-30T06:13:36.125Z,931.31
2018-06-30T06:14:35.997Z,931.31
2018-06-30T06:15:35.950Z,931.28
2018-06-30T06:16:35.902Z,931.29
2018-06-30T06:17:35.860Z,931.32
2018-06-30T06:18:35.812Z,931.31
2018-06-30T06:19:35.778Z,931.32
2018-06-30T06:20:35.744Z,931.32
2018-06-30T06:21:35.679Z,931.32
2018-06-30T06:22:35.623Z,931.29
2018-06-30T06:23:35.578Z,931.26
2018-06-30T06:24:35.571Z,931.27
2018-06-30T06:25:35.515Z,931.21
2018-06-30T06:26:35.436Z,931.28
2018-06-30T06:27:35.451Z,931.25
2018-06-30T06:28:35.352Z,931.23
2018-06-30T06:29:35.305Z,931.20
2018-06-30T06:30:35.253Z,931.14
2018-06-30T06:31:35.226Z,931.10
2018-06-30T06:32:35.267Z,931.08
2018-06-30T06:33:35.120Z,931.11
2018-06-30T06:34:35.081Z,931.07
2018-06-30T06:35:35.020Z,930.99
2018-06-30T06:36:34.976Z,931.01
2018-06-30T06:37:34.930Z,931.01
2018-06-30T06:38:34.994Z,931.03
2018-06-30T06:39:34.842Z,931.10
2018-06-30T06:40:34.801Z,931.07
2018-06-30T06:41:34.769Z,931.09
2018-06-30T06:42:34.710Z,931.08
2018-06-30T06:43:34.670Z,931.08
2018-06-30T06:44:34.605Z,931.09
2018-06-30T06:45:34.560Z,931.08
2018-06-30T06:46:34.549Z,931.03
2018-06-30T06:47:34.478Z,931.00
2018-06-30T06:48:34.435Z,931.01
2018-06-30T06:49:34.373Z,931.01
2018-06-30T06:50:34.333Z,931.03
2018-06-30T06:51:34.307Z,930.99
2018-06-30T06:52:34.233Z,931.02
2018-06-30T06:53:34.217Z,931.03
2018-06-30T06:54:34.151Z,931.02
2018-06-30T06:55:34.120Z,930.98
2018-06-30T06:56:34.049Z,930.97
2018-06-30T06:57:34.033Z,931.01
2018-06-30T06:58:33.964Z,931.01
2018-06-30T06:59:33.927Z,931.00
2018-06-30T07:00:33.882Z,931.04
2018-06-30T07:01:33.865Z,930.99
2018-06-30T07:02:33.782Z,930.99
2018-06-30T07:03:33.736Z,930.96
2018-06-30T07:04:33.692Z,930.95
2018-06-30T07:05:33.653Z,930.98
2018-06-30T07:06:33.597Z,930.98
2018-06-30T07:07:33.564Z,930.96
2018-06-30T07:08:33.504Z,930.95
2018-06-30T07:09:33.452Z,930.95
2018-06-30T07:10:33.398Z,930.94
2018-06-30T07:11:33.363Z,930.89
2018-06-30T07:12:33.344Z,930.91
2018-06-30T07:13:33.293Z,930.86
2018-06-30T07:14:33.233Z,930.90
2018-06-30T07:15:33.171Z,930.91
2018-06-30T07:16:33.135Z,930.91
2018-06-30T07:17:33.088Z,930.92
2018-06-30T07:18:33.061Z,930.87
2018-06-30T07:19:33.002Z,930.94
2018-06-30T07:20:32.951Z,930.89
2018-06-30T07:21:32.903Z,930.89
2018-06-30T07:22:32.846Z,930.88
2018-06-30T07:23:32.839Z,930.87
2018-06-30T07:24:32.775Z,930.83
2018-06-30T07:25:32.751Z,930.85
2018-06-30T07:26:32.691Z,930.86
2018-06-30T07:27:32.634Z,930.88
2018-06-30T07:28:32.589Z,930.87
2018-06-30T07:29:32.532Z,930.93
2018-06-30T07:30:32.502Z,930.89
2018-06-30T07:31:32.454Z,930.87
2018-06-30T07:32:32.401Z,930.85
2018-06-30T07:33:32.365Z,930.84
2018-06-30T07:34:32.331Z,930.82
2018-06-30T07:35:32.269Z,930.78
2018-06-30T07:36:32.209Z,930.79
2018-06-30T07:37:32.214Z,930.78
2018-06-30T07:38:32.105Z,930.75
2018-06-30T07:39:32.084Z,930.83
2018-06-30T07:40:32.030Z,930.84
2018-06-30T07:41:31.965Z,930.87
2018-06-30T07:42:31.918Z,930.90
2018-06-30T07:43:31.897Z,930.96
2018-06-30T07:44:31.826Z,930.94
2018-06-30T07:45:31.782Z,930.93
2018-06-30T07:46:31.749Z,930.99
2018-06-30T07:47:31.728Z,930.94
2018-06-30T07:48:31.640Z,930.96
2018-06-30T07:49:31.624Z,930.96
2018-06-30T07:50:31.546Z,930.96
2018-06-30T07:51:31.499Z,930.93
2018-06-30T07:52:31.458Z,930.90
2018-06-30T07:53:31.440Z,930.93
2018-06-30T07:54:31.361Z,930.95
2018-06-30T07:55:31.470Z,930.96
2018-06-30T07:56:31.513Z,930.95
2018-06-30T07:57:31.220Z,930.97
2018-06-30T07:58:31.180Z,930.95
2018-06-30T07:59:31.258Z,930.93
2018-06-30T08:00:31.088Z,930.91
2018-06-30T08:01:31.040Z,930.96
2018-06-30T08:02:31.014Z,930.95
2018-06-30T08:03:30.981Z,930.91
2018-06-30T08:04:30.908Z,930.94
2018-06-30T08:05:30.892Z,930.96
2018-06-30T08:06:30.839Z,931.00
2018-06-30T08:07:30.770Z,931.02
2018-06-30T08:08:30.713Z,931.00
2018-06-30T08:09:30.699Z,931.01
2018-06-30T08:10:30.622Z,930.96
2018-06-30T08:11:30.600Z,931.00
2018-06-30T08:12:30.530Z,930.95
2018-06-30T08:13:30.502Z,930.98
2018-06-30T08:14:30.440Z,930.96
2018-06-30T08:15:30.392Z,930.99
2018-06-30T08:16:30.357Z,930.99
2018-06-30T08:17:30.296Z,931.02
2018-06-30T08:18:30.252Z,931.00
2018-06-30T08:19:30.216Z,931.05
2018-06-30T08:20:30.171Z,931.04
2018-06-30T08:21:30.119Z,931.05
2018-06-30T08:22:30.066Z,931.01
2018-06-30T08:23:30.042Z,931.03
2018-06-30T08:24:29.991Z,931.05
2018-06-30T08:25:29.936Z,931.06
2018-06-30T08:26:29.904Z,931.04
2018-06-30T08:27:29.839Z,931.05
2018-06-30T08:28:29.783Z,931.04
2018-06-30T08:29:29.739Z,931.08
2018-06-30T08:30:29.718Z,931.05
2018-06-30T08:31:29.653Z,931.06
2018-06-30T08:32:29.594Z,931.03
2018-06-30T08:33:29.565Z,931.08
2018-06-30T08:34:29.530Z,931.08
2018-06-30T08:35:29.454Z,931.08
2018-06-30T08:36:29.438Z,931.12
2018-06-30T08:37:29.368Z,931.12
2018-06-30T08:38:29.344Z,931.10
2018-06-30T08:39:29.299Z,931.10
2018-06-30T08:40:29.248Z,931.11
2018-06-30T08:41:29.179Z,931.11
2018-06-30T08:42:29.141Z,931.12
2018-06-30T08:43:29.095Z,931.13
2018-06-30T08:44:29.095Z,931.10
2018-06-30T08:45:28.995Z,931.13
2018-06-30T08:46:28.947Z,931.11
2018-06-30T08:47:28.900Z,931.15
2018-06-30T08:48:28.860Z,931.14
2018-06-30T08:49:28.801Z,931.15
2018-06-30T08:50:28.761Z,931.17
2018-06-30T08:51:28.741Z,931.13
2018-06-30T08:52:28.664Z,931.16
2018-06-30T08:53:28.634Z,931.14
2018-06-30T08:54:28.573Z,931.16
2018-06-30T08:55:28.600Z,931.14
2018-06-30T08:56:28.496Z,931.17
2018-06-30T08:57:28.472Z,931.18
2018-06-30T08:58:28.391Z,931.19
2018-06-30T08:59:28.338Z,931.22
2018-06-30T09:00:28.332Z,931.20
2018-06-30T09:01:28.257Z,931.27
2018-06-30T09:02:28.219Z,931.28
2018-06-30T09:03:28.174Z,931.29
2018-06-30T09:04:28.130Z,931.27
2018-06-30T09:05:28.053Z,931.26
2018-06-30T09:06:28.054Z,931.28
2018-06-30T09:07:27.964Z,931.28
2018-06-30T09:08:27.914Z,931.22
2018-06-30T09:09:27.888Z,931.22
2018-06-30T09:10:28.386Z,931.21
2018-06-30T09:11:27.778Z,931.24
2018-06-30T09:12:27.745Z,931.20
2018-06-30T09:13:27.689Z,931.19
2018-06-30T09:14:27.663Z,931.19
2018-06-30T09:15:27.620Z,931.22
2018-06-30T09:16:27.580Z,931.25
2018-06-30T09:17:27.509Z,931.23
2018-06-30T09:18:27.457Z,931.25
2018-06-30T09:19:27.411Z,931.23
2018-06-30T09:20:27.390Z,931.25
2018-06-30T09:21:27.317Z,931.26
2018-06-30T09:22:27.281Z,931.19
2018-06-30T09:23:27.243Z,931.21
2018-06-30T09:24:27.181Z,931.21
2018-06-30T09:25:27.139Z,931.16
2018-06-30T09:26:27.095Z,931.18
2018-06-30T09:27:27.055Z,931.21
2018-06-30T09:28:26.991Z,931.22
2018-06-30T09:29:26.952Z,931.24
2018-06-30T09:30:26.934Z,931.27
2018-06-30T09:31:26.848Z,931.26
2018-06-30T09:32:26.811Z,931.26
2018-06-30T09:33:26.777Z,931.28
2018-06-30T09:34:26.726Z,931.25
2018-06-30T09:35:26.691Z,931.29
2018-06-30T09:36:26.632Z,931.28
2018-06-30T09:37:26.591Z,931.26
2018-06-30T09:38:26.550Z,931.31
2018-06-30T09:39:26.498Z,931.31
2018-06-30T09:40:26.445Z,931.26
2018-06-30T09:41:26.408Z,931.31
2018-06-30T09:42:26.363Z,931.32
2018-06-30T09:43:26.298Z,931.32
2018-06-30T09:44:26.358Z,931.32
2018-06-30T09:45:26.213Z,931.33
2018-06-30T09:46:26.166Z,931.35
2018-06-30T09:47:26.106Z,931.35
2018-06-30T09:48:26.068Z,931.36
2018-06-30T09:49:26.038Z,931.36
2018-06-30T09:50:25.972Z,931.38
2018-06-30T09:51:25.933Z,931.36
2018-06-30T09:52:25.896Z,931.34
2018-06-30T09:53:25.852Z,931.34
2018-06-30T09:54:25.774Z,931.34
2018-06-30T09:55:25.745Z,931.33
2018-06-30T09:56:25.692Z,931.34
2018-06-30T09:57:25.654Z,931.37
2018-06-30T09:58:25.618Z,931.34
2018-06-30T09:59:25.545Z,931.36
2018-06-30T10:00:25.530Z,931.39
2018-06-30T10:01:25.479Z,931.40
2018-06-30T10:02:25.431Z,931.34
2018-06-30T10:03:25.357Z,931.41
2018-06-30T10:04:25.310Z,931.39
2018-06-30T10:05:25.267Z,931.39
2018-06-30T10:06:25.232Z,931.42
2018-06-30T10:07:25.209Z,931.44
2018-06-30T10:08:25.127Z,931.45
2018-06-30T10:09:25.094Z,931.44
2018-06-30T10:10:25.036Z,931.49
2018-06-30T10:11:24.999Z,931.46
2018-06-30T10:12:24.952Z,931.50
2018-06-30T10:13:24.920Z,931.53
2018-06-30T10:14:24.868Z,931.50
2018-06-30T10:15:24.797Z,931.54
2018-06-30T10:16:24.804Z,931.56
2018-06-30T10:17:24.716Z,931.54
2018-06-30T10:18:24.695Z,931.55
2018-06-30T10:19:24.637Z,931.56
2018-06-30T10:20:24.571Z,931.55
2018-06-30T10:21:24.531Z,931.54
2018-06-30T10:22:24.486Z,931.48
2018-06-30T10:23:24.454Z,931.49
2018-06-30T10:24:24.378Z,931.46
2018-06-30T10:25:24.338Z,931.50
2018-06-30T10:26:24.287Z,931.54
2018-06-30T10:27:24.270Z,931.49
2018-06-30T10:28:24.219Z,931.52
2018-06-30T10:29:24.162Z,931.50
2018-06-30T10:30:24.118Z,931.52
2018-06-30T10:31:24.091Z,931.52
2018-06-30T10:32:24.008Z,931.51
2018-06-30T10:33:23.966Z,931.57
2018-06-30T10:34:23.915Z,931.58
2018-06-30T10:35:23.870Z,931.56
2018-06-30T10:36:23.837Z,931.60
2018-06-30T10:37:23.863Z,931.66
2018-06-30T10:38:23.741Z,931.66
2018-06-30T10:39:23.685Z,931.72
2018-06-30T10:40:23.669Z,931.71
2018-06-30T10:41:23.591Z,931.75
2018-06-30T10:42:23.563Z,931.72
2018-06-30T10:43:23.526Z,931.79
2018-06-30T10:44:23.510Z,931.88
2018-06-30T10:45:23.418Z,931.91
2018-06-30T10:46:23.364Z,931.89
2018-06-30T10:47:23.331Z,931.91
2018-06-30T10:48:23.293Z,931.94
2018-06-30T10:49:23.226Z,931.93
2018-06-30T10:50:23.176Z,932.01
2018-06-30T10:51:23.160Z,932.00
2018-06-30T10:52:23.084Z,932.04
2018-06-30T10:53:23.057Z,932.00
2018-06-30T10:54:22.993Z,932.09
2018-06-30T10:55:23.021Z,932.18
2018-06-30T10:56:22.928Z,932.32
2018-06-30T10:57:22.855Z,932.44
2018-06-30T10:58:22.820Z,932.57
2018-06-30T10:59:22.772Z,932.31
2018-06-30T11:00:22.861Z,932.20
2018-06-30T11:01:22.677Z,932.10
2018-06-30T11:02:22.642Z,932.19
2018-06-30T11:03:22.632Z,932.07
2018-06-30T11:04:22.566Z,932.11
2018-06-30T11:05:22.508Z,932.22
2018-06-30T11:06:22.487Z,932.44
2018-06-30T11:07:22.445Z,932.40
2018-06-30T11:08:22.381Z,932.61
2018-06-30T11:09:22.338Z,932.56
2018-06-30T11:10:22.287Z,932.42
2018-06-30T11:11:22.253Z,932.30
2018-06-30T11:12:22.224Z,932.28
2018-06-30T11:13:22.157Z,932.34
2018-06-30T11:14:22.115Z,932.24
2018-06-30T11:15:22.083Z,932.23
2018-06-30T11:16:22.032Z,932.22
2018-06-30T11:17:22.004Z,932.14
2018-06-30T11:18:21.955Z,932.15
2018-06-30T11:19:21.909Z,932.34
2018-06-30T11:20:21.859Z,932.39
2018-06-30T11:21:21.816Z,932.15
2018-06-30T11:22:21.807Z,932.09
2018-06-30T11:23:21.747Z,932.01
2018-06-30T11:24:21.720Z,931.97
2018-06-30T11:25:21.661Z,931.95
2018-06-30T11:26:21.623Z,931.99
2018-06-30T11:27:21.565Z,931.99
2018-06-30T11:28:21.528Z,931.95
2018-06-30T11:29:21.537Z,931.98
2018-06-30T11:30:21.437Z,932.00
2018-06-30T11:31:21.391Z,932.03
2018-06-30T11:32:21.362Z,932.09
2018-06-30T11:33:21.334Z,932.09
2018-06-30T11:34:21.289Z,932.13
2018-06-30T11:35:21.210Z,932.06
2018-06-30T11:36:21.183Z,932.11
2018-06-30T11:37:21.125Z,932.13
2018-06-30T11:38:21.085Z,932.16
2018-06-30T11:39:21.050Z,932.14
2018-06-30T11:40:21.019Z,932.14
2018-06-30T11:41:20.957Z,932.15
2018-06-30T11:42:20.945Z,932.17
2018-06-30T11:43:20.881Z,932.13
2018-06-30T11:44:20.818Z,932.09
2018-06-30T11:45:20.776Z,932.12
2018-06-30T11:46:20.734Z,932.11
2018-06-30T11:47:20.696Z,932.07
2018-06-30T11:48:20.667Z,932.14
2018-06-30T11:49:20.601Z,932.07
2018-06-30T11:50:20.643Z,932.10
2018-06-30T11:51:20.518Z,932.13
2018-06-30T11:52:20.492Z,932.11
2018-06-30T11:53:20.433Z,932.18
2018-06-30T11:54:20.384Z,932.19
2018-06-30T11:55:20.325Z,932.18
2018-06-30T11:56:20.299Z,932.21
2018-06-30T11:57:20.270Z,932.21
2018-06-30T11:58:20.200Z,932.18
2018-06-30T11:59:20.179Z,932.15
2018-06-30T12:00:20.112Z,932.14
2018-06-30T12:01:20.063Z,932.19
2018-06-30T12:02:20.019Z,932.15
2018-06-30T12:03:19.975Z,932.15
2018-06-30T12:04:19.939Z,932.12
2018-06-30T12:05:19.888Z,932.14
2018-06-30T12:06:19.867Z,932.10
2018-06-30T12:07:19.793Z,932.13
2018-06-30T12:08:19.752Z,932.13
2018-06-30T12:09:19.765Z,932.11
2018-06-30T12:10:19.688Z,932.17
2018-06-30T12:11:19.628Z,932.18
2018-06-30T12:12:19.598Z,932.18
2018-06-30T12:13:19.555Z,932.23
2018-06-30T12:14:19.509Z,932.25
2018-06-30T12:15:19.471Z,932.23
2018-06-30T12:16:19.390Z,932.21
2018-06-30T12:17:19.348Z,932.24
2018-06-30T12:18:19.307Z,932.26
2018-06-30T12:19:19.257Z,932.23
2018-06-30T12:20:19.215Z,932.22
2018-06-30T12:21:19.203Z,932.20
2018-06-30T12:22:19.135Z,932.23
2018-06-30T12:23:19.089Z,932.23
2018-06-30T12:24:19.059Z,932.17
2018-06-30T12:25:18.987Z,932.19
2018-06-30T12:26:18.958Z,932.17
2018-06-30T12:27:18.901Z,932.19
2018-06-30T12:28:18.859Z,932.22